createdAt,value
2018-02-11T00:00:19.258Z,2.70
2018-02-11T00:02:47.125Z,2.60
2018-02-11T00:05:14.833Z,2.60
2018-02-11T00:07:42.569Z,2.50
2018-02-11T00:10:10.417Z,2.60
2018-02-11T00:12:38.286Z,2.60
2018-02-11T00:15:05.993Z,2.60
2018-02-11T00:17:34.634Z,2.60
2018-02-11T00:20:02.600Z,2.60
2018-02-11T00:22:30.474Z,2.60
2018-02-11T00:24:58.338Z,2.60
2018-02-11T00:27:26.205Z,2.50
2018-02-11T00:29:54.081Z,2.60
2018-02-11T00:32:21.940Z,2.60
2018-02-11T00:34:49.807Z,2.60
2018-02-11T00:37:23.120Z,2.50
2018-02-11T00:39:50.839Z,2.60
2018-02-11T00:42:18.632Z,2.60
2018-02-11T00:44:46.498Z,2.60
2018-02-11T00:47:14.367Z,2.50
2018-02-11T00:49:42.233Z,2.60
2018-02-11T00:52:09.932Z,2.70
2018-02-11T00:54:38.412Z,2.70
2018-02-11T00:57:06.882Z,2.70
2018-02-11T00:59:34.727Z,2.70
2018-02-11T01:02:02.696Z,2.70
2018-02-11T01:04:30.567Z,2.60
2018-02-11T01:06:58.432Z,2.50
2018-02-11T01:09:26.302Z,2.50
2018-02-11T01:11:54.165Z,2.50
2018-02-11T01:14:22.033Z,2.40
2018-02-11T01:16:49.757Z,2.40
2018-02-11T01:19:17.472Z,2.40
2018-02-11T01:21:45.328Z,2.30
2018-02-11T01:24:13.195Z,2.20
2018-02-11T01:26:41.062Z,2.30
2018-02-11T01:29:08.930Z,2.30
2018-02-11T01:31:36.797Z,2.20
2018-02-11T01:34:04.665Z,2.30
2018-02-11T01:36:32.536Z,2.20
2018-02-11T01:39:00.399Z,2.30
2018-02-11T01:41:28.266Z,2.20
2018-02-11T01:43:56.134Z,2.20
2018-02-11T01:46:24.001Z,2.30
2018-02-11T01:48:51.868Z,2.20
2018-02-11T01:51:19.736Z,2.20
2018-02-11T01:53:47.603Z,2.30
2018-02-11T01:56:15.471Z,2.30
2018-02-11T01:58:43.337Z,2.30
2018-02-11T02:01:11.205Z,2.20
2018-02-11T02:03:39.077Z,2.30
2018-02-11T02:06:09.595Z,2.30
2018-02-11T02:08:37.301Z,2.30
2018-02-11T02:11:05.851Z,2.20
2018-02-11T02:13:33.560Z,2.20
2018-02-11T02:16:02.046Z,2.30
2018-02-11T02:18:30.525Z,2.30
2018-02-11T02:20:59.059Z,2.30
2018-02-11T02:23:26.927Z,2.20
2018-02-11T02:25:54.794Z,2.20
2018-02-11T02:28:22.664Z,2.30
2018-02-11T02:30:50.528Z,2.30
2018-02-11T02:33:18.395Z,2.30
2018-02-11T02:35:46.262Z,2.30
2018-02-11T02:38:14.130Z,2.30
2018-02-11T02:40:41.843Z,2.30
2018-02-11T02:43:10.313Z,2.40
2018-02-11T02:45:38.964Z,2.40
2018-02-11T02:48:06.828Z,2.40
2018-02-11T02:50:34.593Z,2.40
2018-02-11T02:53:02.460Z,2.30
2018-02-11T02:55:30.328Z,2.30
2018-02-11T02:57:58.196Z,2.30
2018-02-11T03:00:25.918Z,2.20
2018-02-11T03:02:53.633Z,2.20
2018-02-11T03:05:21.343Z,2.20
2018-02-11T03:07:49.177Z,2.30
2018-02-11T03:10:16.894Z,2.20
2018-02-11T03:12:44.686Z,2.20
2018-02-11T03:15:12.552Z,2.10
2018-02-11T03:17:40.521Z,2.10
2018-02-11T03:20:08.418Z,2.20
2018-02-11T03:22:36.970Z,2.40
2018-02-11T03:25:04.840Z,2.40
2018-02-11T03:27:32.707Z,2.30
2018-02-11T03:30:00.575Z,2.40
2018-02-11T03:32:28.441Z,2.40
2018-02-11T03:34:56.309Z,2.40
2018-02-11T03:37:24.186Z,2.40
2018-02-11T03:39:52.043Z,2.30
2018-02-11T03:42:19.910Z,2.30
2018-02-11T03:44:47.778Z,2.40
2018-02-11T03:47:15.645Z,2.40
2018-02-11T03:49:43.512Z,2.50
2018-02-11T03:52:11.380Z,2.50
2018-02-11T03:54:39.248Z,2.40
2018-02-11T03:57:07.115Z,2.50
2018-02-11T03:59:34.981Z,2.40
2018-02-11T04:02:02.849Z,2.50
2018-02-11T04:04:30.717Z,2.50
2018-02-11T04:06:58.584Z,2.50
2018-02-11T04:09:26.554Z,2.40
2018-02-11T04:11:54.421Z,2.50
2018-02-11T04:14:22.289Z,2.50
2018-02-11T04:16:50.088Z,2.60
2018-02-11T04:19:18.741Z,2.60
2018-02-11T04:21:46.609Z,2.60
2018-02-11T04:24:14.475Z,2.60
2018-02-11T04:26:42.348Z,2.60
2018-02-11T04:29:10.209Z,2.60
2018-02-11T04:31:38.077Z,2.60
2018-02-11T04:34:05.944Z,2.60
2018-02-11T04:36:33.810Z,2.60
2018-02-11T04:39:01.676Z,2.70
2018-02-11T04:41:29.851Z,2.70
2018-02-11T04:43:57.721Z,2.70
2018-02-11T04:46:25.585Z,2.80
2018-02-11T04:48:53.453Z,2.80
2018-02-11T04:51:21.320Z,2.80
2018-02-11T04:53:49.187Z,2.80
2018-02-11T04:56:17.056Z,2.80
2018-02-11T04:58:44.923Z,2.80
2018-02-11T05:01:12.789Z,2.80
2018-02-11T05:03:40.655Z,2.60
2018-02-11T05:06:08.523Z,2.70
2018-02-11T05:08:36.411Z,2.60
2018-02-11T05:11:04.258Z,2.60
2018-02-11T05:13:32.024Z,2.70
2018-02-11T05:15:59.892Z,2.70
2018-02-11T05:18:27.760Z,2.70
2018-02-11T05:20:55.627Z,2.60
2018-02-11T05:23:23.495Z,2.60
2018-02-11T05:25:52.353Z,2.60
2018-02-11T05:28:20.088Z,2.50
2018-02-11T05:30:48.557Z,2.40
2018-02-11T05:33:16.291Z,2.40
2018-02-11T05:35:44.161Z,2.40
2018-02-11T05:38:12.028Z,2.30
2018-02-11T05:40:39.895Z,2.30
2018-02-11T05:43:07.774Z,2.30
2018-02-11T05:45:35.630Z,2.30
2018-02-11T05:48:03.497Z,2.20
2018-02-11T05:50:31.365Z,2.20
2018-02-11T05:52:59.233Z,2.10
2018-02-11T05:55:27.100Z,2.00
2018-02-11T05:57:54.966Z,2.00
2018-02-11T06:00:22.834Z,2.00
2018-02-11T06:02:50.702Z,2.00
2018-02-11T06:05:18.569Z,2.00
2018-02-11T06:07:46.441Z,2.00
2018-02-11T06:10:14.410Z,2.00
2018-02-11T06:12:42.274Z,2.00
2018-02-11T06:15:10.140Z,1.90
2018-02-11T06:17:38.110Z,1.90
2018-02-11T06:20:05.976Z,1.90
2018-02-11T06:22:33.844Z,1.90
2018-02-11T06:25:01.814Z,1.80
2018-02-11T06:27:29.992Z,1.80
2018-02-11T06:29:57.855Z,1.70
2018-02-11T06:32:25.723Z,1.60
2018-02-11T06:34:53.592Z,1.50
2018-02-11T06:37:21.457Z,1.50
2018-02-11T06:39:49.324Z,1.40
2018-02-11T06:42:17.191Z,1.50
2018-02-11T06:44:45.059Z,1.30
2018-02-11T06:47:12.926Z,1.30
2018-02-11T06:49:40.793Z,1.40
2018-02-11T06:52:08.661Z,1.50
2018-02-11T06:54:37.994Z,1.40
2018-02-11T06:57:06.650Z,1.50
2018-02-11T06:59:34.412Z,1.50
2018-02-11T07:02:03.202Z,1.50
2018-02-11T07:04:31.070Z,1.60
2018-02-11T07:06:58.937Z,1.70
2018-02-11T07:09:40.174Z,1.70
2018-02-11T07:12:09.704Z,1.60
2018-02-11T07:14:38.998Z,1.60
2018-02-11T07:17:08.530Z,1.70
2018-02-11T07:19:36.332Z,1.60
2018-02-11T07:22:04.982Z,1.70
2018-02-11T07:24:32.849Z,1.70
2018-02-11T07:27:00.716Z,1.70
2018-02-11T07:29:28.584Z,1.70
2018-02-11T07:31:56.451Z,1.60
2018-02-11T07:34:24.319Z,1.50
2018-02-11T07:36:52.189Z,1.50
2018-02-11T07:39:20.053Z,1.60
2018-02-11T07:41:47.923Z,1.60
2018-02-11T07:44:16.562Z,1.60
2018-02-11T07:46:45.397Z,1.60
2018-02-11T07:49:13.193Z,1.60
2018-02-11T07:51:41.029Z,1.50
2018-02-11T07:54:08.825Z,1.60
2018-02-11T07:56:37.377Z,1.60
2018-02-11T07:59:05.250Z,1.60
2018-02-11T08:01:33.112Z,1.70
2018-02-11T08:04:00.909Z,1.70
2018-02-11T08:06:28.744Z,1.70
2018-02-11T08:08:56.611Z,1.60
2018-02-11T08:11:24.478Z,1.70
2018-02-11T08:13:52.346Z,1.70
2018-02-11T08:16:20.220Z,1.70
2018-02-11T08:18:48.081Z,1.80
2018-02-11T08:21:15.949Z,1.80
2018-02-11T08:23:43.817Z,1.80
2018-02-11T08:26:11.683Z,1.80
2018-02-11T08:28:39.550Z,1.90
2018-02-11T08:31:07.418Z,1.90
2018-02-11T08:33:35.290Z,1.90
2018-02-11T08:36:03.971Z,2.10
2018-02-11T08:38:31.838Z,2.00
2018-02-11T08:40:59.809Z,2.10
2018-02-11T08:43:27.675Z,2.10
2018-02-11T08:45:55.543Z,2.00
2018-02-11T08:48:23.414Z,2.00
2018-02-11T08:50:51.278Z,2.10
2018-02-11T08:53:19.145Z,2.10
2018-02-11T08:55:47.021Z,2.10
2018-02-11T08:58:14.880Z,2.10
2018-02-11T09:00:42.747Z,2.10
2018-02-11T09:05:44.526Z,2.20
2018-02-11T09:08:12.391Z,2.20
2018-02-11T09:10:40.261Z,2.20
2018-02-11T09:13:08.141Z,2.20
2018-02-11T09:15:35.995Z,2.30
2018-02-11T09:18:04.168Z,2.30
2018-02-11T09:20:33.065Z,2.30
2018-02-11T09:23:01.746Z,2.30
2018-02-11T09:25:29.612Z,2.30
2018-02-11T09:27:57.479Z,2.40
2018-02-11T09:30:25.348Z,2.50
2018-02-11T09:32:53.214Z,2.50
2018-02-11T09:35:21.081Z,2.60
2018-02-11T09:37:48.950Z,2.50
2018-02-11T09:40:16.816Z,2.60
2018-02-11T09:42:44.684Z,2.70
2018-02-11T09:45:12.476Z,2.70
2018-02-11T09:47:41.135Z,2.80
2018-02-11T09:50:09.004Z,2.80
2018-02-11T09:52:36.871Z,2.80
2018-02-11T09:55:04.740Z,2.80
2018-02-11T09:57:33.597Z,2.90
2018-02-11T10:00:01.599Z,2.90
2018-02-11T10:02:29.466Z,2.90
2018-02-11T10:04:58.957Z,3.00
2018-02-11T10:07:26.839Z,3.00
2018-02-11T10:09:54.632Z,3.00
2018-02-11T10:12:22.471Z,3.10
2018-02-11T10:14:50.339Z,3.10
2018-02-11T10:17:18.208Z,3.10
2018-02-11T10:19:46.073Z,3.10
2018-02-11T10:22:13.941Z,3.20
2018-02-11T10:24:41.807Z,3.20
2018-02-11T10:27:09.675Z,3.10
2018-02-11T10:29:37.543Z,3.10
2018-02-11T10:32:05.262Z,3.10
2018-02-11T10:34:32.965Z,3.10
2018-02-11T10:37:00.841Z,3.20
2018-02-11T10:39:28.706Z,3.20
2018-02-11T10:41:56.572Z,3.20
2018-02-11T10:44:24.439Z,3.20
2018-02-11T10:46:52.311Z,3.20
2018-02-11T10:49:20.173Z,3.30
2018-02-11T10:51:48.040Z,3.30
2018-02-11T10:54:16.512Z,3.50
2018-02-11T10:56:44.287Z,3.50
2018-02-11T10:59:12.155Z,3.50
2018-02-11T11:01:40.023Z,3.50
2018-02-11T11:04:07.787Z,3.60
2018-02-11T11:06:35.677Z,3.60
2018-02-11T11:09:03.625Z,3.70
2018-02-11T11:11:31.491Z,3.80
2018-02-11T11:13:59.201Z,3.80
2018-02-11T11:16:27.665Z,4.00
2018-02-11T11:18:55.365Z,3.90
2018-02-11T11:21:23.066Z,4.10
2018-02-11T11:23:50.760Z,4.30
2018-02-11T11:26:19.248Z,4.50
2018-02-11T11:28:47.741Z,4.50
2018-02-11T11:31:16.205Z,4.40
2018-02-11T11:33:44.669Z,4.50
2018-02-11T11:36:12.381Z,4.50
2018-02-11T11:38:40.093Z,4.60
2018-02-11T11:41:07.801Z,4.70
2018-02-11T11:43:35.496Z,4.80
2018-02-11T11:46:03.209Z,5.10
2018-02-11T11:48:31.756Z,5.70
2018-02-11T11:50:59.519Z,5.70
2018-02-11T11:53:27.206Z,6.50
2018-02-11T11:55:55.049Z,7.00
2018-02-11T11:58:22.916Z,7.20
2018-02-11T12:00:50.784Z,7.10
2018-02-11T12:03:18.651Z,7.00
2018-02-11T12:05:46.522Z,6.90
2018-02-11T12:08:14.385Z,7.10
2018-02-11T12:10:42.089Z,7.10
2018-02-11T12:13:10.566Z,6.80
2018-02-11T12:15:39.036Z,6.70
2018-02-11T12:18:06.734Z,6.70
2018-02-11T12:20:34.541Z,6.60
2018-02-11T12:23:02.411Z,6.60
2018-02-11T12:25:30.276Z,6.60
2018-02-11T12:27:58.146Z,6.60
2018-02-11T12:30:26.013Z,6.60
2018-02-11T12:32:53.882Z,6.60
2018-02-11T12:35:21.745Z,6.60
2018-02-11T12:37:49.612Z,6.60
2018-02-11T12:40:17.480Z,6.60
2018-02-11T12:42:45.347Z,6.50
2018-02-11T12:45:13.215Z,6.30
2018-02-11T12:47:40.975Z,6.20
2018-02-11T12:50:08.706Z,6.00
2018-02-11T12:52:36.405Z,5.90
2018-02-11T12:55:04.125Z,5.90
2018-02-11T12:57:31.825Z,5.90
2018-02-11T12:59:59.530Z,5.90
2018-02-11T13:02:28.001Z,5.90
2018-02-11T13:04:55.701Z,5.90
2018-02-11T13:07:23.508Z,5.90
2018-02-11T13:09:51.376Z,5.90
2018-02-11T13:12:19.294Z,5.90
2018-02-11T13:14:47.930Z,5.80
2018-02-11T13:17:15.797Z,5.70
2018-02-11T13:19:43.665Z,5.60
2018-02-11T13:22:11.532Z,5.60
2018-02-11T13:24:39.399Z,5.60
2018-02-11T13:27:07.266Z,5.60
2018-02-11T13:29:35.134Z,5.60
2018-02-11T13:32:03.001Z,5.70
2018-02-11T13:34:30.868Z,5.80
2018-02-11T13:36:58.735Z,5.80
2018-02-11T13:39:26.806Z,5.80
2018-02-11T13:41:54.602Z,5.80
2018-02-11T13:44:22.440Z,5.80
2018-02-11T13:46:50.306Z,5.80
2018-02-11T13:49:18.218Z,5.80
2018-02-11T13:51:46.759Z,5.60
2018-02-11T13:54:14.660Z,5.60
2018-02-11T13:56:43.210Z,5.60
2018-02-11T13:59:11.076Z,5.60
2018-02-11T14:01:38.945Z,5.60
2018-02-11T14:04:06.813Z,5.60
2018-02-11T14:06:34.679Z,5.60
2018-02-11T14:09:02.651Z,5.60
2018-02-11T14:11:30.516Z,5.60
2018-02-11T14:13:58.998Z,5.50
2018-02-11T14:16:26.867Z,5.50
2018-02-11T14:18:54.733Z,5.30
2018-02-11T14:21:23.421Z,5.30
2018-02-11T14:23:51.288Z,5.30
2018-02-11T14:26:20.075Z,5.20
2018-02-11T14:28:48.049Z,5.00
2018-02-11T14:31:15.814Z,4.90
2018-02-11T14:33:43.678Z,4.90
2018-02-11T14:36:11.545Z,4.90
2018-02-11T14:38:39.412Z,4.90
2018-02-11T14:41:07.280Z,5.00
2018-02-11T14:43:36.062Z,4.90
2018-02-11T14:46:03.776Z,5.00
2018-02-11T14:48:32.281Z,5.10
2018-02-11T14:51:00.081Z,5.10
2018-02-11T14:53:27.947Z,5.10
2018-02-11T14:55:55.815Z,5.10
2018-02-11T14:58:23.682Z,5.10
2018-02-11T15:00:51.556Z,5.10
2018-02-11T15:03:19.421Z,5.00
2018-02-11T15:05:47.286Z,5.00
2018-02-11T15:08:15.152Z,5.00
2018-02-11T15:10:43.020Z,5.00
2018-02-11T15:13:10.888Z,5.10
2018-02-11T15:15:39.475Z,5.10
2018-02-11T15:18:08.259Z,5.10
2018-02-11T15:20:36.126Z,5.20
2018-02-11T15:23:03.993Z,5.20
2018-02-11T15:25:31.861Z,5.30
2018-02-11T15:27:59.731Z,5.30
2018-02-11T15:30:27.596Z,5.30
2018-02-11T15:32:55.462Z,5.30
2018-02-11T15:35:23.329Z,5.30
2018-02-11T15:37:51.198Z,5.40
2018-02-11T15:40:19.063Z,5.40
2018-02-11T15:42:50.138Z,5.40
2018-02-11T15:45:18.845Z,5.50
2018-02-11T15:47:47.479Z,5.50
2018-02-11T15:50:16.268Z,5.50
2018-02-11T15:52:45.672Z,5.50
2018-02-11T15:55:13.540Z,5.50
2018-02-11T15:57:41.509Z,5.50
2018-02-11T16:00:12.140Z,5.40
2018-02-11T16:02:40.725Z,5.40
2018-02-11T16:05:08.593Z,5.30
2018-02-11T16:07:36.460Z,5.20
2018-02-11T16:10:04.839Z,5.10
2018-02-11T16:12:33.734Z,5.00
2018-02-11T16:15:01.525Z,4.90
2018-02-11T16:17:29.362Z,4.90
2018-02-11T16:19:58.152Z,5.00
2018-02-11T16:22:26.020Z,5.00
2018-02-11T16:24:54.296Z,5.00
2018-02-11T16:27:26.778Z,5.10
2018-02-11T16:29:58.413Z,5.10
2018-02-11T16:32:26.305Z,5.10
2018-02-11T16:34:57.148Z,5.20
2018-02-11T16:37:24.999Z,5.20
2018-02-11T16:39:53.890Z,5.20
2018-02-11T16:42:22.697Z,5.20
2018-02-11T16:44:50.546Z,5.20
2018-02-11T16:47:18.414Z,5.20
2018-02-11T16:49:46.284Z,5.20
2018-02-11T16:52:14.155Z,5.20
2018-02-11T16:54:41.874Z,5.30
2018-02-11T16:57:09.585Z,5.20
2018-02-11T16:59:37.443Z,5.20
2018-02-11T17:02:07.227Z,5.20
2018-02-11T17:04:35.227Z,5.20
2018-02-11T17:07:02.968Z,5.20
2018-02-11T17:09:30.859Z,5.20
2018-02-11T17:11:58.728Z,5.30
2018-02-11T17:14:26.521Z,5.30
2018-02-11T17:16:54.232Z,5.20
2018-02-11T17:19:21.962Z,5.20
2018-02-11T17:21:50.604Z,5.20
2018-02-11T17:24:18.472Z,5.20
2018-02-11T17:26:46.339Z,5.20
2018-02-11T17:29:14.208Z,5.10
2018-02-11T17:31:43.559Z,5.10
2018-02-11T17:34:12.407Z,5.00
2018-02-11T17:36:40.190Z,5.00
2018-02-11T17:39:07.905Z,5.00
2018-02-11T17:41:35.796Z,5.00
2018-02-11T17:44:03.513Z,5.00
2018-02-11T17:46:31.257Z,5.00
2018-02-11T17:48:59.738Z,5.00
2018-02-11T17:51:28.225Z,5.10
2018-02-11T17:53:56.707Z,5.10
2018-02-11T17:56:25.289Z,5.00
2018-02-11T17:58:53.939Z,5.10
2018-02-11T18:01:21.875Z,5.00
2018-02-11T18:03:49.777Z,5.00
2018-02-11T18:06:17.644Z,5.00
2018-02-11T18:08:45.510Z,5.00
2018-02-11T18:11:13.378Z,5.00
2018-02-11T18:13:41.100Z,5.00
2018-02-11T18:16:08.837Z,5.00
2018-02-11T18:18:37.341Z,4.90
2018-02-11T18:21:05.074Z,4.90
2018-02-11T18:23:32.920Z,4.90
2018-02-11T18:26:00.645Z,4.90
2018-02-11T18:28:28.449Z,4.90
2018-02-11T18:30:56.166Z,4.90
2018-02-11T18:33:23.878Z,4.90
2018-02-11T18:35:51.596Z,4.90
2018-02-11T18:38:19.310Z,4.90
2018-02-11T18:40:47.188Z,4.90
2018-02-11T18:43:14.975Z,4.90
2018-02-11T18:45:42.685Z,4.90
2018-02-11T18:48:10.409Z,4.80
2018-02-11T18:50:39.051Z,4.70
2018-02-11T18:53:06.918Z,4.60
2018-02-11T18:55:34.658Z,4.60
2018-02-11T18:58:02.448Z,4.60
2018-02-11T19:00:31.368Z,4.60
2018-02-11T19:02:59.863Z,4.50
2018-02-11T19:05:28.336Z,4.50
2018-02-11T19:07:56.817Z,4.50
2018-02-11T19:10:25.284Z,4.50
2018-02-11T19:12:53.133Z,4.50
2018-02-11T19:15:20.846Z,4.50
2018-02-11T19:17:49.331Z,4.40
2018-02-11T19:20:17.146Z,4.40
2018-02-11T19:22:45.016Z,4.30
2018-02-11T19:25:12.880Z,4.30
2018-02-11T19:27:40.631Z,4.30
2018-02-11T19:30:08.617Z,4.30
2018-02-11T19:32:36.481Z,4.30
2018-02-11T19:35:04.214Z,4.30
2018-02-11T19:37:31.945Z,4.30
2018-02-11T19:40:00.597Z,4.30
2018-02-11T19:42:28.463Z,4.30
2018-02-11T19:44:56.206Z,4.30
2018-02-11T19:47:23.956Z,4.30
2018-02-11T19:49:51.682Z,4.30
2018-02-11T19:52:19.522Z,4.20
2018-02-11T19:54:47.390Z,4.20
2018-02-11T19:57:15.259Z,4.20
2018-02-11T19:59:43.129Z,4.10
2018-02-11T20:02:10.858Z,4.10
2018-02-11T20:04:38.578Z,4.10
2018-02-11T20:07:06.294Z,4.10
2018-02-11T20:09:34.017Z,4.10
2018-02-11T20:12:02.513Z,4.00
2018-02-11T20:14:31.001Z,4.00
2018-02-11T20:16:58.810Z,4.00
2018-02-11T20:19:26.529Z,4.00
2018-02-11T20:21:54.340Z,4.00
2018-02-11T20:24:22.057Z,3.90
2018-02-11T20:26:49.776Z,3.90
2018-02-11T20:29:17.493Z,3.90
2018-02-11T20:31:45.298Z,3.90
2018-02-11T20:34:13.093Z,3.90
2018-02-11T20:36:40.814Z,3.90
2018-02-11T20:39:08.535Z,3.90
2018-02-11T20:41:37.111Z,3.80
2018-02-11T20:44:05.593Z,3.80
2018-02-11T20:46:34.244Z,3.90
2018-02-11T20:49:02.110Z,3.80
2018-02-11T20:51:29.978Z,3.80
2018-02-11T20:53:57.843Z,3.80
2018-02-11T20:56:25.711Z,3.90
2018-02-11T20:58:53.449Z,3.90
2018-02-11T21:01:21.242Z,3.90
2018-02-11T21:03:48.963Z,4.00
2018-02-11T21:06:16.676Z,4.00
2018-02-11T21:08:45.383Z,4.00
2018-02-11T21:11:13.120Z,4.00
2018-02-11T21:13:40.840Z,4.00
2018-02-11T21:16:08.556Z,4.00
2018-02-11T21:18:36.269Z,4.00
2018-02-11T21:21:04.077Z,4.00
2018-02-11T21:23:31.814Z,4.10
2018-02-11T21:25:59.530Z,4.10
2018-02-11T21:28:27.253Z,4.10
2018-02-11T21:30:54.962Z,4.20
2018-02-11T21:33:22.682Z,4.10
2018-02-11T21:35:50.565Z,4.20
2018-02-11T21:38:18.277Z,4.20
2018-02-11T21:40:46.752Z,4.20
2018-02-11T21:43:15.240Z,4.20
2018-02-11T21:45:43.712Z,4.30
2018-02-11T21:48:12.197Z,4.20
2018-02-11T21:50:40.670Z,4.20
2018-02-11T21:53:09.167Z,4.10
2018-02-11T21:55:37.650Z,4.10
2018-02-11T21:58:06.286Z,4.20
2018-02-11T22:00:34.155Z,4.10
2018-02-11T22:03:01.875Z,4.10
2018-02-11T22:05:29.593Z,4.20
2018-02-11T22:07:57.310Z,4.20
2018-02-11T22:10:25.023Z,4.20
2018-02-11T22:12:52.877Z,4.20
2018-02-11T22:15:20.593Z,4.20
2018-02-11T22:17:48.405Z,4.20
2018-02-11T22:20:16.273Z,4.20
2018-02-11T22:22:43.993Z,4.20
2018-02-11T22:25:11.803Z,4.20
2018-02-11T22:27:39.673Z,4.20
2018-02-11T22:30:07.390Z,4.20
2018-02-11T22:32:35.200Z,4.10
2018-02-11T22:35:03.068Z,4.20
2018-02-11T22:37:30.935Z,4.10
2018-02-11T22:39:58.801Z,4.10
2018-02-11T22:42:26.669Z,4.10
2018-02-11T22:44:54.393Z,4.10
2018-02-11T22:47:22.199Z,4.10
2018-02-11T22:49:50.066Z,4.00
2018-02-11T22:52:17.785Z,4.00
2018-02-11T22:54:45.499Z,3.90
2018-02-11T22:57:13.228Z,3.90
2018-02-11T22:59:40.946Z,3.80
2018-02-11T23:02:08.789Z,3.80
2018-02-11T23:04:36.656Z,3.70
2018-02-11T23:07:04.522Z,3.70
2018-02-11T23:09:32.392Z,3.60
2018-02-11T23:12:00.186Z,3.60
2018-02-11T23:14:27.950Z,3.60
2018-02-11T23:16:55.786Z,3.50
2018-02-11T23:19:23.657Z,3.50
2018-02-11T23:21:51.360Z,3.50
2018-02-11T23:24:20.008Z,3.50
2018-02-11T23:26:47.874Z,3.40
2018-02-11T23:29:15.739Z,3.40
2018-02-11T23:31:43.607Z,3.40
2018-02-11T23:34:11.398Z,3.40
2018-02-11T23:36:39.109Z,3.30
2018-02-11T23:39:06.829Z,3.30
2018-02-11T23:41:34.540Z,3.20
2018-02-11T23:44:02.253Z,3.10
2018-02-11T23:46:29.970Z,3.00
2018-02-11T23:48:57.713Z,3.00
2018-02-11T23:51:25.429Z,3.00
2018-02-11T23:53:53.145Z,2.90
2018-02-11T23:56:21.050Z,2.90
2018-02-11T23:58:48.846Z,2.80
